Terminal Aerodrome Forecast
Issued by NWS Northern Indiana

Home | Current Version | Previous Version | Text Only | Print | Product List | Glossary Off
Versions: 1 2 3 4 5 6 7 8 9 10 11 12 13 14 15

158
FTUS43 KIWX 251720
TAFFWA
TAF
KFWA 251720Z 2518/2618 20008KT P6SM SCT050
     FM260200 19006KT P6SM VCSH SCT050 BKN100
     FM261000 20004KT P6SM SCT020 BKN100
      TEMPO 2610/2614 5SM BR BKN020
     FM261400 21010KT P6SM SCT040=

USA.gov is the U.S. government's official web portal to all federal, state and local government web resources and services.